PAED METAR and TAF weather

Enter ICAO airport designator
Station Type Date Time Source
PAED METAR 2019/05/25 08:56 UTC NOAA

PAED 250856Z AUTO 07005KT 10SM CLR 10/03 A3015 RMK AO2 SLP206 T00990034 401630088 55000


Station Type Date Time Source
PAED Decoded METAR 2019/05/25 08:56 UTC NOAA

Anchorage, Elmendorf Air Force Base, AK, United States (PAED) 61-15-11N 149-47-38W 59M
May 25, 2019 - 04:56 AM EDT / 2019.05.25 0856 UTC
Wind: from the ENE (070 degrees) at 6 MPH (5 KT):0
Visibility: 10 mile(s):0
Sky conditions: clear
Temperature: 49.8 F (9.9 C)
Dew Point: 38.1 F (3.4 C)
Relative Humidity: 63%
Pressure (altimeter): 30.15 in. Hg (1020 hPa)
Pressure tendency: 0.00 inches (0.0 hPa) lower than three hours ago
ob: PAED 250856Z AUTO 07005KT 10SM CLR 10/03 A3015 RMK AO2 SLP206 T00990034 401630088 55000
cycle: 9

Station Type Date Time Source
PAED TAF 2019/05/25 03:24 UTC NOAA

TAF PAED 250300Z 2503/2609 VRB06KT 9999 SCT035 SCT055 QNH2996INS
BECMG 2601/2602 VRB06KT 9999 BKN070 620709 QNH2993INS
BECMG 2604/2605 VRB06KT 9000 -RA SCT040 BKN060 620909 QNH2990INS TX18/2600Z TN08/2512Z

Example: see airport list